Language: 


Des rapports , des résumés tant et plus, au choix de chacun....


Données statistiques de la station
Quotidien Rapport Janvier 15, 2018 Unités:  les deux    Anglais   Métrique
« Précédent Jour
Suivant Jour »
Quotidien Hebdomadaire Mensuel Annuel Actuel
  Haut: Bas: Moyen:
Température: TemperatureC °F /  -17.8 °C -0.2 °F /  -17.9 °C 5.2 °F /  -14.9 °C
Pt de rosée: DewpointC °F /  -17.8 °C -1.0 °F /  -18.3 °C 5 °F /  -15 °C
Humidité: Humidity % 90 % 96 %
Vitesse du vent: WindSpeedKMH mph /  0 km/h - 13.6 mph /  21.9 km/h
Rafales: WindSpeedGustKMH mph /  0 km/h - -
Vent:- - SW
Pression: PressurehPa in /  0 hPa 992.1 in /  33592.5 hPa -
Précipitation: 8.6 in /  218.44 mm    
Historical Graphs
 
 
Données statistiques pour Janvier 15, 2018
Heure Température Point de rosée Pression Vent Vitesse du vent Refales Humidité Pluie (taux horaire)
TemperatureC °F /  -17.8 °C DewpointC °F /  -17.8 °C PressurehPa in /  0 hPa Calm     Humidity % HourlyPrecipMM in /  0 mm
00:16 0.2 °F /  -17.7 °C 0.0 °F /  -17.8 °C 1016.1 in /  34405.1 hPa Calm     98 % 0.0 in /  0 mm
00:25 0.0 °F /  -17.8 °C -1.0 °F /  -18.3 °C 1016.1 in /  34405.1 hPa Calm     98 % 0.0 in /  0 mm
00:31 -0.2 °F /  -17.9 °C -1.0 °F /  -18.3 °C 1016.1 in /  34405.1 hPa Calm     98 % 0.0 in /  0 mm
00:38 -0.2 °F /  -17.9 °C -1.0 °F /  -18.3 °C 1016.1 in /  34405.1 hPa South 5.0 mph /  8 km/h 5.0 mph /  8 km/h 98 % 0.0 in /  0 mm
00:48 0.0 °F /  -17.8 °C -1.0 °F /  -18.3 °C 1015.1 in /  34371.3 hPa Calm   5.8 mph /  9.3 km/h 98 % 0.0 in /  0 mm
01:14 0.7 °F /  -17.4 °C 1.0 °F /  -17.2 °C 1015.1 in /  34371.3 hPa SSW 4.7 mph /  7.6 km/h 9.0 mph /  14.5 km/h 98 % 0.0 in /  0 mm
01:21 0.9 °F /  -17.3 °C 1.0 °F /  -17.2 °C 1015.1 in /  34371.3 hPa South 5.8 mph /  9.3 km/h 6.9 mph /  11.1 km/h 98 % 0.0 in /  0 mm
01:31 1.0 °F /  -17.2 °C 1.0 °F /  -17.2 °C 1015.1 in /  34371.3 hPa SSW 4.3 mph /  6.9 km/h 8.7 mph /  14 km/h 98 % 0.0 in /  0 mm
01:36 1.1 °F /  -17.2 °C 1.0 °F /  -17.2 °C 1015.1 in /  34371.3 hPa SSW 6.1 mph /  9.8 km/h 7.2 mph /  11.6 km/h 98 % 0.0 in /  0 mm
01:49 1.1 °F /  -17.2 °C 1.0 °F /  -17.2 °C 1015.1 in /  34371.3 hPa SSW 1.8 mph /  2.9 km/h 7.2 mph /  11.6 km/h 98 % 0.0 in /  0 mm
01:54 1.1 °F /  -17.2 °C 1.0 °F /  -17.2 °C 1015.1 in /  34371.3 hPa Calm   9.0 mph /  14.5 km/h 98 % 0.0 in /  0 mm
02:02 1.1 °F /  -17.2 °C 1.0 °F /  -17.2 °C 1015.1 in /  34371.3 hPa Calm   6.1 mph /  9.8 km/h 98 % 0.0 in /  0 mm
02:09 1.1 °F /  -17.2 °C 1.0 °F /  -17.2 °C 1015.1 in /  34371.3 hPa SSW 6.9 mph /  11.1 km/h 6.9 mph /  11.1 km/h 98 % 0.0 in /  0 mm
02:18 1.1 °F /  -17.2 °C 1.0 °F /  -17.2 °C 1014.1 in /  34337.4 hPa SSW 6.4 mph /  10.3 km/h 8.7 mph /  14 km/h 98 % 0.0 in /  0 mm
02:23 1.1 °F /  -17.2 °C 1.0 °F /  -17.2 °C 1014.1 in /  34337.4 hPa Calm   9.0 mph /  14.5 km/h 98 % 0.0 in /  0 mm
02:32 1.1 °F /  -17.2 °C 1.0 °F /  -17.2 °C 1015.1 in /  34371.3 hPa South 4.7 mph /  7.6 km/h 7.6 mph /  12.2 km/h 98 % 0.0 in /  0 mm
02:51 1.1 °F /  -17.2 °C 1.0 °F /  -17.2 °C 1014.1 in /  34337.4 hPa Calm   6.4 mph /  10.3 km/h 98 % 0.0 in /  0 mm
02:56 1.1 °F /  -17.2 °C 1.0 °F /  -17.2 °C 1014.1 in /  34337.4 hPa SSW 5.5 mph /  8.9 km/h 6.9 mph /  11.1 km/h 98 % 0.0 in /  0 mm
03:11 1.1 °F /  -17.2 °C 1.0 °F /  -17.2 °C 1013.1 in /  34303.6 hPa SSW 11.6 mph /  18.7 km/h 13.0 mph /  20.9 km/h 98 % 0.0 in /  0 mm
03:25 1.1 °F /  -17.2 °C 1.0 °F /  -17.2 °C 1013.1 in /  34303.6 hPa SSW 9.0 mph /  14.5 km/h 13.0 mph /  20.9 km/h 98 % 0.0 in /  0 mm
03:31 1.1 °F /  -17.2 °C 1.0 °F /  -17.2 °C 1013.1 in /  34303.6 hPa SSW 11.6 mph /  18.7 km/h 15.8 mph /  25.4 km/h 98 % 0.0 in /  0 mm
03:37 1.1 °F /  -17.2 °C 1.0 °F /  -17.2 °C 1013.1 in /  34303.6 hPa South 10.1 mph /  16.3 km/h 13.0 mph /  20.9 km/h 98 % 0.0 in /  0 mm
03:46 1.1 °F /  -17.2 °C 1.0 °F /  -17.2 °C 1013.1 in /  34303.6 hPa WSW 20.9 mph /  33.6 km/h 22.7 mph /  36.5 km/h 98 % 0.0 in /  0 mm
04:07 1.1 °F /  -17.2 °C 1.0 °F /  -17.2 °C 1012.1 in /  34269.7 hPa SW 14.0 mph /  22.5 km/h 20.9 mph /  33.6 km/h 98 % 0.0 in /  0 mm
04:14 1.1 °F /  -17.2 °C 1.0 °F /  -17.2 °C 1012.1 in /  34269.7 hPa SSW 10.5 mph /  16.9 km/h 21.2 mph /  34.1 km/h 98 % 0.0 in /  0 mm
04:39 1.1 °F /  -17.2 °C 1.0 °F /  -17.2 °C 1013.1 in /  34303.6 hPa SSW 15.8 mph /  25.4 km/h 17.2 mph /  27.7 km/h 98 % 0.0 in /  0 mm
04:49 1.1 °F /  -17.2 °C 1.0 °F /  -17.2 °C 1013.1 in /  34303.6 hPa SSW 14.8 mph /  23.8 km/h 20.6 mph /  33.2 km/h 98 % 0.0 in /  0 mm
04:55 1.1 °F /  -17.2 °C 1.0 °F /  -17.2 °C 1013.1 in /  34303.6 hPa SW 11.9 mph /  19.2 km/h 20.6 mph /  33.2 km/h 98 % 0.0 in /  0 mm
05:05 1.1 °F /  -17.2 °C 1.0 °F /  -17.2 °C 1013.1 in /  34303.6 hPa SW 9.0 mph /  14.5 km/h 17.7 mph /  28.5 km/h 98 % 0.0 in /  0 mm
05:10 1.1 °F /  -17.2 °C 1.0 °F /  -17.2 °C 1013.1 in /  34303.6 hPa SSW 31.7 mph /  51 km/h 31.7 mph /  51 km/h 98 % 0.0 in /  0 mm
05:15 1.1 °F /  -17.2 °C 1.0 °F /  -17.2 °C 1013.1 in /  34303.6 hPa SSW 6.9 mph /  11.1 km/h 31.7 mph /  51 km/h 98 % 0.0 in /  0 mm
05:20 1.1 °F /  -17.2 °C 1.0 °F /  -17.2 °C 1013.1 in /  34303.6 hPa South 7.9 mph /  12.7 km/h 12.2 mph /  19.6 km/h 98 % 0.0 in /  0 mm
05:25 1.1 °F /  -17.2 °C 1.0 °F /  -17.2 °C 1012.1 in /  34269.7 hPa South 7.9 mph /  12.7 km/h 14.0 mph /  22.5 km/h 98 % 0.0 in /  0 mm
05:45 1.1 °F /  -17.2 °C 1.0 °F /  -17.2 °C 1011.1 in /  34235.8 hPa SSW 13.0 mph /  20.9 km/h 14.0 mph /  22.5 km/h 98 % 0.0 in /  0 mm
05:54 1.1 °F /  -17.2 °C 1.0 °F /  -17.2 °C 1011.1 in /  34235.8 hPa SSW 10.8 mph /  17.4 km/h 17.7 mph /  28.5 km/h 98 % 0.0 in /  0 mm
06:00 1.1 °F /  -17.2 °C 1.0 °F /  -17.2 °C 1011.1 in /  34235.8 hPa South 9.7 mph /  15.6 km/h 17.7 mph /  28.5 km/h 98 % 0.0 in /  0 mm
06:16 1.1 °F /  -17.2 °C 1.0 °F /  -17.2 °C 1011.1 in /  34235.8 hPa SSW 12.2 mph /  19.6 km/h 19.8 mph /  31.9 km/h 98 % 0.0 in /  0 mm
06:21 1.1 °F /  -17.2 °C 1.0 °F /  -17.2 °C 1011.1 in /  34235.8 hPa SSW 9.3 mph /  15 km/h 19.8 mph /  31.9 km/h 98 % 0.0 in /  0 mm
06:26 1.1 °F /  -17.2 °C 1.0 °F /  -17.2 °C 1011.1 in /  34235.8 hPa SSW 9.0 mph /  14.5 km/h 20.9 mph /  33.6 km/h 98 % 0.0 in /  0 mm
06:34 1.1 °F /  -17.2 °C 1.0 °F /  -17.2 °C 1011.1 in /  34235.8 hPa South 9.3 mph /  15 km/h 20.9 mph /  33.6 km/h 98 % 0.0 in /  0 mm
06:53 1.1 °F /  -17.2 °C 1.0 °F /  -17.2 °C 1011.1 in /  34235.8 hPa SSW 10.5 mph /  16.9 km/h 18.3 mph /  29.5 km/h 98 % 0.0 in /  0 mm
07:11 1.1 °F /  -17.2 °C 1.0 °F /  -17.2 °C 1010.0 in /  34198.6 hPa SSW 10.5 mph /  16.9 km/h 17.2 mph /  27.7 km/h 98 % 0.0 in /  0 mm
07:16 1.1 °F /  -17.2 °C 1.0 °F /  -17.2 °C 1010.0 in /  34198.6 hPa South 5.0 mph /  8 km/h 16.3 mph /  26.2 km/h 98 % 0.0 in /  0 mm
07:29 1.1 °F /  -17.2 °C 1.0 °F /  -17.2 °C 1009.0 in /  34164.7 hPa SW 17.7 mph /  28.5 km/h 17.7 mph /  28.5 km/h 98 % 0.0 in /  0 mm
07:34 1.1 °F /  -17.2 °C 1.0 °F /  -17.2 °C 1009.0 in /  34164.7 hPa South 11.9 mph /  19.2 km/h 17.7 mph /  28.5 km/h 98 % 0.0 in /  0 mm
07:43 1.1 °F /  -17.2 °C 1.0 °F /  -17.2 °C 1009.0 in /  34164.7 hPa South 10.5 mph /  16.9 km/h 17.7 mph /  28.5 km/h 98 % 0.0 in /  0 mm
07:54 1.1 °F /  -17.2 °C 1.0 °F /  -17.2 °C 1009.0 in /  34164.7 hPa SSW 10.5 mph /  16.9 km/h 17.2 mph /  27.7 km/h 98 % 0.0 in /  0 mm
08:00 1.1 °F /  -17.2 °C 1.0 °F /  -17.2 °C 1009.0 in /  34164.7 hPa SW 12.6 mph /  20.3 km/h 16.9 mph /  27.2 km/h 98 % 0.0 in /  0 mm
08:07 1.1 °F /  -17.2 °C 1.0 °F /  -17.2 °C 1009.0 in /  34164.7 hPa SSW 9.7 mph /  15.6 km/h 21.2 mph /  34.1 km/h 98 % 0.0 in /  0 mm
08:18 1.1 °F /  -17.2 °C 1.0 °F /  -17.2 °C 1009.0 in /  34164.7 hPa South 14.0 mph /  22.5 km/h 20.9 mph /  33.6 km/h 98 % 0.0 in /  0 mm
08:26 1.1 °F /  -17.2 °C 1.0 °F /  -17.2 °C 1008.0 in /  34130.9 hPa SSE 11.9 mph /  19.2 km/h 20.1 mph /  32.3 km/h 98 % 0.0 in /  0 mm
08:34 1.1 °F /  -17.2 °C 1.0 °F /  -17.2 °C 1008.0 in /  34130.9 hPa SSW 10.5 mph /  16.9 km/h 20.9 mph /  33.6 km/h 98 % 0.0 in /  0 mm
08:51 5.4 °F /  -14.8 °C 6.0 °F /  -14.4 °C 1007.0 in /  34097 hPa SSW 8.7 mph /  14 km/h 21.2 mph /  34.1 km/h 98 % 0.0 in /  0 mm
08:56 5.4 °F /  -14.8 °C 6.0 °F /  -14.4 °C 1007.0 in /  34097 hPa SSW 11.6 mph /  18.7 km/h 21.2 mph /  34.1 km/h 98 % 0.0 in /  0 mm
09:04 5.5 °F /  -14.7 °C 6.0 °F /  -14.4 °C 1007.0 in /  34097 hPa SSW 13.0 mph /  20.9 km/h 24.8 mph /  39.9 km/h 98 % 0.0 in /  0 mm
09:10 5.6 °F /  -14.7 °C 6.0 °F /  -14.4 °C 1007.0 in /  34097 hPa SW 12.2 mph /  19.6 km/h 24.8 mph /  39.9 km/h 98 % 0.0 in /  0 mm
09:15 5.7 °F /  -14.6 °C 6.0 °F /  -14.4 °C 1007.0 in /  34097 hPa SSW 15.1 mph /  24.3 km/h 24.5 mph /  39.4 km/h 98 % 0.0 in /  0 mm
09:22 5.7 °F /  -14.6 °C 6.0 °F /  -14.4 °C 1007.0 in /  34097 hPa SW 12.2 mph /  19.6 km/h 21.2 mph /  34.1 km/h 98 % 0.0 in /  0 mm
10:02 6.3 °F /  -14.3 °C 6.0 °F /  -14.4 °C 1006.0 in /  34063.2 hPa SSW 20.6 mph /  33.2 km/h 23.8 mph /  38.3 km/h 96 % 0.0 in /  0 mm
10:11 6.3 °F /  -14.3 °C 6.0 °F /  -14.4 °C 1006.0 in /  34063.2 hPa SSW 16.9 mph /  27.2 km/h 28.0 mph /  45.1 km/h 96 % 0.0 in /  0 mm
10:29 6.4 °F /  -14.2 °C 6.0 °F /  -14.4 °C 1006.0 in /  34063.2 hPa South 16.3 mph /  26.2 km/h 27.7 mph /  44.6 km/h 94 % 0.0 in /  0 mm
10:39 6.4 °F /  -14.2 °C 6.0 °F /  -14.4 °C 1006.0 in /  34063.2 hPa SSW 24.5 mph /  39.4 km/h 25.3 mph /  40.7 km/h 94 % 0.0 in /  0 mm
10:44 6.4 °F /  -14.2 °C 6.0 °F /  -14.4 °C 1005.0 in /  34029.3 hPa SSW 14.3 mph /  23 km/h 28.0 mph /  45.1 km/h 94 % 0.0 in /  0 mm
11:06 6.4 °F /  -14.2 °C 6.0 °F /  -14.4 °C 1003.9 in /  33992.1 hPa SSW 20.6 mph /  33.2 km/h 27.0 mph /  43.5 km/h 94 % 0.5 in /  12.7 mm
11:25 6.4 °F /  -14.2 °C 6.0 °F /  -14.4 °C 1006.0 in /  34063.2 hPa SSW 13.0 mph /  20.9 km/h 29.9 mph /  48.1 km/h 94 % 0.8 in /  20.32 mm
11:36 6.4 °F /  -14.2 °C 6.0 °F /  -14.4 °C 1003.9 in /  33992.1 hPa SSW 19.5 mph /  31.4 km/h 33.8 mph /  54.4 km/h 94 % 0.8 in /  20.32 mm
11:47 6.3 °F /  -14.3 °C 6.0 °F /  -14.4 °C 1001.9 in /  33924.3 hPa SSW 10.8 mph /  17.4 km/h 35.6 mph /  57.3 km/h 98 % 0.5 in /  12.7 mm
11:59 6.3 °F /  -14.3 °C 6.0 °F /  -14.4 °C 1002.9 in /  33958.2 hPa SW 27.0 mph /  43.5 km/h 32.8 mph /  52.8 km/h 98 % 0.3 in /  7.62 mm
12:05 6.3 °F /  -14.3 °C 6.0 °F /  -14.4 °C 1002.9 in /  33958.2 hPa SSW 25.9 mph /  41.7 km/h 38.9 mph /  62.6 km/h 98 % 0.3 in /  7.62 mm
12:11 6.3 °F /  -14.3 °C 6.0 °F /  -14.4 °C 1001.9 in /  33924.3 hPa SW 14.3 mph /  23 km/h 27.0 mph /  43.5 km/h 98 % 0.3 in /  7.62 mm
12:21 6.3 °F /  -14.3 °C 6.0 °F /  -14.4 °C 1001.9 in /  33924.3 hPa SW 15.8 mph /  25.4 km/h 35.6 mph /  57.3 km/h 98 % 0.0 in /  0 mm
12:32 6.3 °F /  -14.3 °C 6.0 °F /  -14.4 °C 1001.9 in /  33924.3 hPa SSW 24.5 mph /  39.4 km/h 43.1 mph /  69.4 km/h 98 % 0.0 in /  0 mm
12:42 6.3 °F /  -14.3 °C 6.0 °F /  -14.4 °C 1000.9 in /  33890.5 hPa SSW 12.2 mph /  19.6 km/h 31.4 mph /  50.5 km/h 98 % 0.0 in /  0 mm
12:52 6.3 °F /  -14.3 °C 6.0 °F /  -14.4 °C 1000.9 in /  33890.5 hPa South 27.0 mph /  43.5 km/h 36.7 mph /  59.1 km/h 98 % 0.3 in /  7.62 mm
12:59 6.7 °F /  -14.1 °C 7.0 °F /  -13.9 °C 1000.9 in /  33890.5 hPa South 17.7 mph /  28.5 km/h 30.2 mph /  48.6 km/h 98 % 0.3 in /  7.62 mm
13:04 6.7 °F /  -14.1 °C 7.0 °F /  -13.9 °C 1000.9 in /  33890.5 hPa SW 16.6 mph /  26.7 km/h 36.7 mph /  59.1 km/h 98 % 0.3 in /  7.62 mm
13:14 6.7 °F /  -14.1 °C 7.0 °F /  -13.9 °C 999.9 in /  33856.6 hPa South 16.6 mph /  26.7 km/h 34.6 mph /  55.7 km/h 98 % 0.3 in /  7.62 mm
13:21 6.6 °F /  -14.1 °C 7.0 °F /  -13.9 °C 999.9 in /  33856.6 hPa SSW 17.7 mph /  28.5 km/h 28.0 mph /  45.1 km/h 98 % 0.3 in /  7.62 mm
13:30 6.6 °F /  -14.1 °C 7.0 °F /  -13.9 °C 998.9 in /  33822.8 hPa SSW 16.3 mph /  26.2 km/h 37.0 mph /  59.5 km/h 98 % 0.3 in /  7.62 mm
13:35 6.7 °F /  -14.1 °C 7.0 °F /  -13.9 °C 998.9 in /  33822.8 hPa South 13.7 mph /  22 km/h 38.5 mph /  62 km/h 98 % 0.3 in /  7.62 mm
13:40 6.7 °F /  -14.1 °C 7.0 °F /  -13.9 °C 998.9 in /  33822.8 hPa South 15.8 mph /  25.4 km/h 38.5 mph /  62 km/h 98 % 0.3 in /  7.62 mm
13:58 6.7 °F /  -14.1 °C 7.0 °F /  -13.9 °C 997.9 in /  33788.9 hPa SSW 18.3 mph /  29.5 km/h 32.0 mph /  51.5 km/h 98 % 0.3 in /  7.62 mm
14:17 6.9 °F /  -13.9 °C 7.0 °F /  -13.9 °C 997.9 in /  33788.9 hPa South 20.6 mph /  33.2 km/h 30.6 mph /  49.2 km/h 98 % 1.0 in /  25.4 mm
14:29 6.9 °F /  -13.9 °C 7.0 °F /  -13.9 °C 996.8 in /  33751.6 hPa SSW 27.7 mph /  44.6 km/h 36.4 mph /  58.6 km/h 98 % 1.3 in /  33.02 mm
14:37 7.0 °F /  -13.9 °C 7.0 °F /  -13.9 °C 996.8 in /  33751.6 hPa SW 20.1 mph /  32.3 km/h 40.4 mph /  65 km/h 98 % 1.5 in /  38.1 mm
14:42 7.0 °F /  -13.9 °C 7.0 °F /  -13.9 °C 996.8 in /  33751.6 hPa SSW 23.8 mph /  38.3 km/h 40.4 mph /  65 km/h 98 % 1.8 in /  45.72 mm
14:52 7.1 °F /  -13.8 °C 7.0 °F /  -13.9 °C 996.8 in /  33751.6 hPa SSW 21.2 mph /  34.1 km/h 38.9 mph /  62.6 km/h 98 % 1.8 in /  45.72 mm
15:01 7.1 °F /  -13.8 °C 7.0 °F /  -13.9 °C 996.2 in /  33731.3 hPa South 16.6 mph /  26.7 km/h 37.8 mph /  60.8 km/h 98 % 2.3 in /  58.42 mm
15:06 7.1 °F /  -13.8 °C 7.0 °F /  -13.9 °C 996.2 in /  33731.3 hPa South 17.2 mph /  27.7 km/h 35.2 mph /  56.6 km/h 98 % 2.5 in /  63.5 mm
15:19 7.1 °F /  -13.8 °C 7.0 °F /  -13.9 °C 995.1 in /  33694.1 hPa SSW 23.0 mph /  37 km/h 28.5 mph /  45.9 km/h 98 % 2.3 in /  58.42 mm
15:24 7.1 °F /  -13.8 °C 7.0 °F /  -13.9 °C 995.1 in /  33694.1 hPa SSW 20.6 mph /  33.2 km/h 35.2 mph /  56.6 km/h 98 % 1.8 in /  45.72 mm
15:31 7.1 °F /  -13.8 °C 7.0 °F /  -13.9 °C 995.1 in /  33694.1 hPa SSW 19.1 mph /  30.7 km/h 35.2 mph /  56.6 km/h 98 % 1.8 in /  45.72 mm
15:40 7.1 °F /  -13.8 °C 7.0 °F /  -13.9 °C 995.1 in /  33694.1 hPa SSW 14.0 mph /  22.5 km/h 36.4 mph /  58.6 km/h 98 % 2.3 in /  58.42 mm
15:57 7.2 °F /  -13.8 °C 7.0 °F /  -13.9 °C 994.1 in /  33660.2 hPa SSW 21.2 mph /  34.1 km/h 31.7 mph /  51 km/h 98 % 2.3 in /  58.42 mm
16:03 7.2 °F /  -13.8 °C 7.0 °F /  -13.9 °C 994.1 in /  33660.2 hPa SSW 20.9 mph /  33.6 km/h 37.8 mph /  60.8 km/h 98 % 1.8 in /  45.72 mm
16:12 7.3 °F /  -13.7 °C 7.0 °F /  -13.9 °C 994.1 in /  33660.2 hPa SSW 16.9 mph /  27.2 km/h 28.0 mph /  45.1 km/h 98 % 1.8 in /  45.72 mm
16:18 7.4 °F /  -13.7 °C 7.0 °F /  -13.9 °C 994.1 in /  33660.2 hPa SSW 28.8 mph /  46.3 km/h 32.0 mph /  51.5 km/h 98 % 1.5 in /  38.1 mm
16:25 7.5 °F /  -13.6 °C 8.0 °F /  -13.3 °C 994.1 in /  33660.2 hPa SW 19.8 mph /  31.9 km/h 32.0 mph /  51.5 km/h 98 % 1.5 in /  38.1 mm
16:37 7.7 °F /  -13.5 °C 8.0 °F /  -13.3 °C 993.1 in /  33626.4 hPa South 21.9 mph /  35.2 km/h 31.4 mph /  50.5 km/h 98 % 1.0 in /  25.4 mm
16:42 7.7 °F /  -13.5 °C 8.0 °F /  -13.3 °C 992.1 in /  33592.5 hPa WSW 16.9 mph /  27.2 km/h 29.9 mph /  48.1 km/h 98 % 0.8 in /  20.32 mm
16:51 7.8 °F /  -13.4 °C 8.0 °F /  -13.3 °C 992.1 in /  33592.5 hPa SSW 20.6 mph /  33.2 km/h 35.2 mph /  56.6 km/h 98 % 0.3 in /  7.62 mm
17:00 7.9 °F /  -13.4 °C 8.0 °F /  -13.3 °C 993.1 in /  33626.4 hPa SSW 16.6 mph /  26.7 km/h 36.7 mph /  59.1 km/h 98 % 0.3 in /  7.62 mm
17:07 7.9 °F /  -13.4 °C 8.0 °F /  -13.3 °C 993.1 in /  33626.4 hPa WSW 20.9 mph /  33.6 km/h 36.7 mph /  59.1 km/h 98 % 0.3 in /  7.62 mm
17:13 8.0 °F /  -13.3 °C 8.0 °F /  -13.3 °C 993.1 in /  33626.4 hPa SSW 25.6 mph /  41.2 km/h 28.0 mph /  45.1 km/h 98 % 0.0 in /  0 mm
17:18 8.0 °F /  -13.3 °C 8.0 °F /  -13.3 °C 993.1 in /  33626.4 hPa SSW 13.7 mph /  22 km/h 34.6 mph /  55.7 km/h 98 % 0.0 in /  0 mm
17:23 8.0 °F /  -13.3 °C 8.0 °F /  -13.3 °C 993.1 in /  33626.4 hPa SSW 17.7 mph /  28.5 km/h 34.6 mph /  55.7 km/h 98 % 0.0 in /  0 mm
17:32 8.2 °F /  -13.2 °C 8.0 °F /  -13.3 °C 993.1 in /  33626.4 hPa SW 20.9 mph /  33.6 km/h 32.0 mph /  51.5 km/h 98 % 0.0 in /  0 mm
17:43 8.3 °F /  -13.2 °C 9.0 °F /  -12.8 °C 993.1 in /  33626.4 hPa SSW 16.6 mph /  26.7 km/h 24.8 mph /  39.9 km/h 98 % 0.0 in /  0 mm
17:49 8.5 °F /  -13.1 °C 9.0 °F /  -12.8 °C 993.1 in /  33626.4 hPa SW 14.0 mph /  22.5 km/h 28.0 mph /  45.1 km/h 98 % 0.0 in /  0 mm
18:01 8.7 °F /  -12.9 °C 9.0 °F /  -12.8 °C 993.1 in /  33626.4 hPa SW 16.6 mph /  26.7 km/h 28.0 mph /  45.1 km/h 98 % 0.8 in /  20.32 mm
18:11 8.8 °F /  -12.9 °C 9.0 °F /  -12.8 °C 993.1 in /  33626.4 hPa WSW 16.9 mph /  27.2 km/h 27.0 mph /  43.5 km/h 98 % 2.3 in /  58.42 mm
18:19 8.8 °F /  -12.9 °C 9.0 °F /  -12.8 °C 993.1 in /  33626.4 hPa SW 10.8 mph /  17.4 km/h 16.9 mph /  27.2 km/h 98 % 2.5 in /  63.5 mm
18:27 8.8 °F /  -12.9 °C 9.0 °F /  -12.8 °C 994.1 in /  33660.2 hPa SW 9.3 mph /  15 km/h 14.0 mph /  22.5 km/h 98 % 2.5 in /  63.5 mm
18:34 8.9 °F /  -12.8 °C 9.0 °F /  -12.8 °C 994.1 in /  33660.2 hPa WSW 17.7 mph /  28.5 km/h 19.1 mph /  30.7 km/h 98 % 2.5 in /  63.5 mm
18:42 9.1 °F /  -12.7 °C 9.0 °F /  -12.8 °C 993.1 in /  33626.4 hPa WSW 13.0 mph /  20.9 km/h 20.1 mph /  32.3 km/h 98 % 2.5 in /  63.5 mm
18:49 9.2 °F /  -12.7 °C 9.0 °F /  -12.8 °C 993.1 in /  33626.4 hPa WSW 13.7 mph /  22 km/h 20.6 mph /  33.2 km/h 98 % 2.5 in /  63.5 mm
18:55 9.3 °F /  -12.6 °C 9.0 °F /  -12.8 °C 993.1 in /  33626.4 hPa West 12.2 mph /  19.6 km/h 24.5 mph /  39.4 km/h 98 % 2.3 in /  58.42 mm
19:34 9.3 °F /  -12.6 °C 9.0 °F /  -12.8 °C 993.1 in /  33626.4 hPa WSW 16.6 mph /  26.7 km/h 27.7 mph /  44.6 km/h 98 % 0.0 in /  0 mm
19:39 9.3 °F /  -12.6 °C 9.0 °F /  -12.8 °C 993.1 in /  33626.4 hPa West 12.6 mph /  20.3 km/h 27.4 mph /  44.1 km/h 98 % 0.0 in /  0 mm
19:48 9.1 °F /  -12.7 °C 9.0 °F /  -12.8 °C 993.1 in /  33626.4 hPa West 26.2 mph /  42.2 km/h 26.2 mph /  42.2 km/h 98 % 0.0 in /  0 mm
20:07 9.1 °F /  -12.7 °C 9.0 °F /  -12.8 °C 993.1 in /  33626.4 hPa West 16.6 mph /  26.7 km/h 27.7 mph /  44.6 km/h 98 % 0.3 in /  7.62 mm
20:14 9.1 °F /  -12.7 °C 9.0 °F /  -12.8 °C 994.1 in /  33660.2 hPa West 25.6 mph /  41.2 km/h 27.7 mph /  44.6 km/h 98 % 0.3 in /  7.62 mm
20:21 9.0 °F /  -12.8 °C 9.0 °F /  -12.8 °C 994.1 in /  33660.2 hPa West 17.7 mph /  28.5 km/h 28.5 mph /  45.9 km/h 98 % 0.3 in /  7.62 mm
20:27 9.0 °F /  -12.8 °C 9.0 °F /  -12.8 °C 994.1 in /  33660.2 hPa West 12.6 mph /  20.3 km/h 28.5 mph /  45.9 km/h 98 % 0.3 in /  7.62 mm
20:37 9.1 °F /  -12.7 °C 9.0 °F /  -12.8 °C 994.1 in /  33660.2 hPa West 15.8 mph /  25.4 km/h 28.0 mph /  45.1 km/h 98 % 0.3 in /  7.62 mm
20:43 9.1 °F /  -12.7 °C 9.0 °F /  -12.8 °C 994.1 in /  33660.2 hPa WSW 23.3 mph /  37.5 km/h 37.5 mph /  60.3 km/h 98 % 0.3 in /  7.62 mm
21:13 8.9 °F /  -12.8 °C 8.0 °F /  -13.3 °C 994.1 in /  33660.2 hPa West 12.6 mph /  20.3 km/h 32.0 mph /  51.5 km/h 93 % 0.0 in /  0 mm
21:37 8.9 °F /  -12.8 °C 8.0 °F /  -13.3 °C 995.1 in /  33694.1 hPa WNW 4.3 mph /  6.9 km/h 27.0 mph /  43.5 km/h 93 % 0.0 in /  0 mm
21:46 8.5 °F /  -13.1 °C 8.0 °F /  -13.3 °C 995.1 in /  33694.1 hPa West 14.0 mph /  22.5 km/h 14.0 mph /  22.5 km/h 92 % 0.0 in /  0 mm
21:47 8.5 °F /  -13.1 °C 8.0 °F /  -13.3 °C 995.1 in /  33694.1 hPa West 6.1 mph /  9.8 km/h 14.0 mph /  22.5 km/h 92 % 0.0 in /  0 mm
21:48 8.5 °F /  -13.1 °C 8.0 °F /  -13.3 °C 995.1 in /  33694.1 hPa NW 4.3 mph /  6.9 km/h 14.0 mph /  22.5 km/h 92 % 0.0 in /  0 mm
21:49 8.5 °F /  -13.1 °C 8.0 °F /  -13.3 °C 995.1 in /  33694.1 hPa WNW 4.3 mph /  6.9 km/h 14.0 mph /  22.5 km/h 92 % 0.0 in /  0 mm
21:50 8.5 °F /  -13.1 °C 8.0 °F /  -13.3 °C 995.1 in /  33694.1 hPa WSW 4.7 mph /  7.6 km/h 14.0 mph /  22.5 km/h 92 % 0.0 in /  0 mm
21:53 8.5 °F /  -13.1 °C 8.0 °F /  -13.3 °C 995.1 in /  33694.1 hPa WNW 6.1 mph /  9.8 km/h 14.0 mph /  22.5 km/h 92 % 0.0 in /  0 mm
21:58 8.5 °F /  -13.1 °C 8.0 °F /  -13.3 °C 995.1 in /  33694.1 hPa North 4.0 mph /  6.4 km/h 9.3 mph /  15 km/h 92 % 0.0 in /  0 mm
22:02 8.5 °F /  -13.1 °C 8.0 °F /  -13.3 °C 995.1 in /  33694.1 hPa Calm   10.5 mph /  16.9 km/h 92 % 0.0 in /  0 mm
22:06 8.5 °F /  -13.1 °C 8.0 °F /  -13.3 °C 995.1 in /  33694.1 hPa WSW 9.0 mph /  14.5 km/h 10.5 mph /  16.9 km/h 92 % 0.0 in /  0 mm
22:13 8.5 °F /  -13.1 °C 8.0 °F /  -13.3 °C 995.1 in /  33694.1 hPa SW 7.9 mph /  12.7 km/h 9.3 mph /  15 km/h 92 % 0.0 in /  0 mm
22:17 8.5 °F /  -13.1 °C 8.0 °F /  -13.3 °C 995.1 in /  33694.1 hPa West 14.0 mph /  22.5 km/h 14.0 mph /  22.5 km/h 92 % 0.0 in /  0 mm
22:25 8.5 °F /  -13.1 °C 8.0 °F /  -13.3 °C 995.1 in /  33694.1 hPa West 12.6 mph /  20.3 km/h 30.9 mph /  49.7 km/h 92 % 0.0 in /  0 mm
23:01 7.3 °F /  -13.7 °C 6.0 °F /  -14.4 °C 995.1 in /  33694.1 hPa WSW 16.9 mph /  27.2 km/h 25.3 mph /  40.7 km/h 92 % 0.0 in /  0 mm
23:08 7.2 °F /  -13.8 °C 6.0 °F /  -14.4 °C 995.1 in /  33694.1 hPa WSW 17.2 mph /  27.7 km/h 28.5 mph /  45.9 km/h 92 % 0.0 in /  0 mm
23:17 7.3 °F /  -13.7 °C 6.0 °F /  -14.4 °C 995.1 in /  33694.1 hPa West 20.9 mph /  33.6 km/h 27.4 mph /  44.1 km/h 92 % 0.0 in /  0 mm
23:30 7.1 °F /  -13.8 °C 6.0 °F /  -14.4 °C 995.1 in /  33694.1 hPa WSW 20.6 mph /  33.2 km/h 24.5 mph /  39.4 km/h 91 % 0.0 in /  0 mm
23:44 7.1 °F /  -13.8 °C 6.0 °F /  -14.4 °C 995.1 in /  33694.1 hPa West 21.2 mph /  34.1 km/h 25.3 mph /  40.7 km/h 91 % 0.0 in /  0 mm
23:55 7.2 °F /  -13.8 °C 6.0 °F /  -14.4 °C 995.1 in /  33694.1 hPa West 24.5 mph /  39.4 km/h 28.5 mph /  45.9 km/h 90 % 0.0 in /  0 mm
Le Gheer Warneton
Courtoisie de Weather Underground - 1.5 mb

Mise a jour : 25/02/2018 14:53:11
Généré par Cumulus 1.9.4 (1099)